Time;durP1;ratioP1;P1;durP2;ratioP2;P2;SDS_P1;SDS_P2;PMS_P1;PMS_P2;Temp;Humidity;BMP_temperature;BMP_pressure;BME280_temperature;BME280_humidity;BME280_pressure;Samples;Min_cycle;Max_cycle;Signal;HPM_P1;HPM_P2
2023/02/04 00:03:29;;;;;;;1.27;0.30;;;;;;;4.81;64.60;97785.81;10541751;28;20444;-77
2023/02/04 00:08:50;;;;;;;1.25;0.20;;;;;;;4.73;64.76;97771.28;10553020;28;20123;-77
2023/02/04 00:14:11;;;;;;;1.15;0.10;;;;;;;4.66;65.00;97768.50;10540984;28;20044;-77
2023/02/04 00:19:33;;;;;;;1.65;0.10;;;;;;;4.51;65.29;97774.78;10555326;28;20051;-77
2023/02/04 00:24:54;;;;;;;0.68;0.10;;;;;;;4.48;65.69;97778.66;10555504;28;20054;-77
2023/02/04 00:30:14;;;;;;;0.30;0.08;;;;;;;4.48;66.53;97793.22;10555203;28;20089;-77
2023/02/04 00:35:38;;;;;;;0.40;0.10;;;;;;;4.54;66.46;97804.09;10541305;28;20046;-77
2023/02/04 00:40:59;;;;;;;0.93;0.07;;;;;;;4.56;66.38;97816.06;10541061;28;20097;-77
2023/02/04 00:46:20;;;;;;;0.88;0.20;;;;;;;4.44;66.50;97819.72;10554170;28;20047;-77
2023/02/04 00:51:43;;;;;;;0.52;0.10;;;;;;;4.31;67.21;97823.41;10554411;28;20070;-77
2023/02/04 00:57:04;;;;;;;0.40;0.10;;;;;;;4.34;67.83;97851.97;10554317;28;20047;-77
2023/02/04 01:02:25;;;;;;;0.20;0.10;;;;;;;4.38;67.30;97850.31;10539581;28;20136;-77
2023/02/04 01:07:46;;;;;;;0.10;0.00;;;;;;;4.52;67.88;97875.75;10539361;28;20039;-77
2023/02/04 01:13:08;;;;;;;1.75;0.10;;;;;;;4.57;67.92;97883.88;10539481;28;20048;-77
2023/02/04 01:18:29;;;;;;;0.20;0.00;;;;;;;4.74;68.96;97886.13;10539124;28;20046;-77
2023/02/04 01:23:50;;;;;;;0.00;0.00;;;;;;;4.80;68.66;97911.56;10553037;28;20043;-77
2023/02/04 01:29:11;;;;;;;0.20;0.00;;;;;;;4.80;69.43;97961.34;10552882;28;20397;-77
2023/02/04 01:34:33;;;;;;;0.25;0.00;;;;;;;4.74;70.51;98015.38;10552710;28;20048;-78
2023/02/04 01:39:53;;;;;;;0.17;0.00;;;;;;;4.45;71.65;98023.00;10553231;28;20092;-77
2023/02/04 01:45:14;;;;;;;0.20;0.00;;;;;;;4.20;70.89;98037.25;10538618;28;20388;-77
2023/02/04 01:50:35;;;;;;;0.30;0.00;;;;;;;3.94;71.43;98056.78;10552889;28;20031;-78
2023/02/04 01:55:56;;;;;;;0.77;0.00;;;;;;;3.67;71.22;98057.00;10552137;28;20072;-78
2023/02/04 02:01:42;;;;;;;0.47;0.10;;;;;;;3.68;70.72;98079.81;10537959;28;20050;-77
2023/02/04 02:07:04;;;;;;;0.28;0.10;;;;;;;3.52;70.58;98084.47;10509774;28;20076;-78
2023/02/04 02:12:25;;;;;;;1.23;0.10;;;;;;;3.33;70.81;98115.00;10538402;28;20041;-78
2023/02/04 02:17:46;;;;;;;0.65;0.10;;;;;;;3.39;70.92;98128.69;10510468;28;20047;-77
2023/02/04 02:23:10;;;;;;;0.70;0.08;;;;;;;3.36;69.35;98162.88;10495897;28;20040;-77
2023/02/04 02:28:30;;;;;;;1.23;0.20;;;;;;;3.02;69.21;98168.38;10536846;28;20040;-78
2023/02/04 02:33:51;;;;;;;0.30;0.10;;;;;;;2.88;69.92;98189.69;10523748;28;20047;-78
2023/02/04 02:39:12;;;;;;;0.20;0.10;;;;;;;2.71;69.39;98197.59;10509322;28;20066;-78
2023/02/04 02:44:33;;;;;;;0.55;0.15;;;;;;;2.48;69.97;98202.75;10513844;28;20051;-77
2023/02/04 02:49:53;;;;;;;0.45;0.20;;;;;;;2.32;69.61;98223.84;10530935;28;20047;-77
2023/02/04 02:55:16;;;;;;;0.32;0.20;;;;;;;2.21;69.31;98262.56;10530961;28;20051;-77
2023/02/04 03:00:37;;;;;;;0.20;0.10;;;;;;;2.14;69.15;98266.72;10516825;28;20044;-77
2023/02/04 03:06:01;;;;;;;1.70;0.20;;;;;;;2.06;69.47;98298.88;10544073;28;20056;-77
2023/02/04 03:11:22;;;;;;;1.80;0.20;;;;;;;1.98;69.68;98306.25;10558450;28;20402;-77
2023/02/04 03:16:44;;;;;;;0.15;0.10;;;;;;;1.94;70.30;98330.59;10557858;28;20092;-77
2023/02/04 03:22:05;;;;;;;1.85;0.20;;;;;;;2.22;70.68;98352.19;10557813;28;20117;-77
2023/02/04 03:27:25;;;;;;;0.28;0.10;;;;;;;2.38;73.85;98384.28;10543293;28;20381;-77
2023/02/04 03:32:46;;;;;;;0.30;0.10;;;;;;;2.18;74.61;98395.84;10543016;28;20396;-77
2023/02/04 03:38:07;;;;;;;0.68;0.25;;;;;;;1.91;75.35;98409.47;10557475;28;20063;-77
2023/02/04 03:43:28;;;;;;;1.52;0.30;;;;;;;1.78;73.83;98423.16;10542912;28;20078;-77
2023/02/04 03:48:48;;;;;;;1.95;0.22;;;;;;;1.66;74.23;98452.06;10554850;28;20063;-77
2023/02/04 03:54:09;;;;;;;1.05;0.30;;;;;;;1.61;73.54;98463.88;10555672;28;20039;-77
2023/02/04 03:59:30;;;;;;;0.93;0.30;;;;;;;1.70;73.26;98496.56;10555946;28;20040;-77
2023/02/04 04:04:51;;;;;;;1.75;0.32;;;;;;;1.92;72.71;98517.59;10570231;28;20153;-77
2023/02/04 04:10:12;;;;;;;1.23;0.38;;;;;;;2.10;72.56;98554.69;10541764;28;20035;-77
2023/02/04 04:15:32;;;;;;;1.13;0.40;;;;;;;2.16;72.31;98552.63;10555717;28;20046;-76
2023/02/04 04:20:53;;;;;;;2.30;0.60;;;;;;;2.15;71.26;98568.41;10555703;28;20059;-77
2023/02/04 04:26:14;;;;;;;2.50;0.60;;;;;;;2.19;70.24;98590.16;10555648;28;20044;-77
2023/02/04 04:31:35;;;;;;;1.20;0.50;;;;;;;2.16;68.78;98605.72;10554749;28;20521;-77
2023/02/04 04:36:56;;;;;;;1.95;0.60;;;;;;;2.16;69.11;98624.25;10554771;28;20434;-77
2023/02/04 04:42:16;;;;;;;2.13;0.70;;;;;;;2.08;68.35;98645.34;10540378;28;20464;-77
2023/02/04 04:47:37;;;;;;;1.33;0.50;;;;;;;2.05;68.37;98663.66;10554637;28;20508;-77
2023/02/04 04:52:58;;;;;;;2.00;0.75;;;;;;;2.00;67.76;98689.25;10553852;28;20046;-77
2023/02/04 04:58:18;;;;;;;1.17;0.70;;;;;;;1.96;67.69;98700.53;10554010;28;20071;-77
2023/02/04 05:03:39;;;;;;;1.30;0.57;;;;;;;1.95;66.81;98712.81;10539717;28;20056;-77
2023/02/04 05:09:00;;;;;;;1.75;0.80;;;;;;;2.03;67.21;98731.53;10551456;28;20044;-77
2023/02/04 05:14:21;;;;;;;2.70;1.08;;;;;;;2.06;67.00;98741.53;10564015;28;20071;-77
2023/02/04 05:19:42;;;;;;;1.77;0.70;;;;;;;2.06;66.16;98749.78;10536917;28;20066;-77
2023/02/04 05:25:02;;;;;;;1.67;0.75;;;;;;;2.11;66.24;98771.03;10528994;28;20397;-78
2023/02/04 05:30:23;;;;;;;1.75;0.70;;;;;;;2.10;66.54;98794.31;10564324;28;20111;-77
2023/02/04 05:35:44;;;;;;;1.67;0.80;;;;;;;2.08;66.85;98807.84;10534860;28;20063;-77
2023/02/04 05:41:05;;;;;;;1.63;0.68;;;;;;;1.89;67.04;98824.25;10543927;28;20032;-77
2023/02/04 05:46:26;;;;;;;1.40;0.70;;;;;;;1.59;67.20;98826.91;10538225;28;20036;-77
2023/02/04 05:51:47;;;;;;;1.35;0.57;;;;;;;1.57;66.87;98854.19;10530184;28;20059;-78
2023/02/04 05:57:08;;;;;;;1.05;0.50;;;;;;;1.67;65.98;98871.94;10527805;28;20071;-77
2023/02/04 06:02:29;;;;;;;1.25;0.45;;;;;;;1.81;65.99;98884.63;10529369;28;20040;-77
2023/02/04 06:07:50;;;;;;;1.92;0.57;;;;;;;1.85;66.42;98890.63;10534843;28;20432;-77
2023/02/04 06:13:10;;;;;;;1.23;0.63;;;;;;;1.89;65.75;98901.34;10526691;28;20105;-77
2023/02/04 06:18:31;;;;;;;0.90;0.50;;;;;;;1.88;65.85;98917.13;10514901;28;20125;-77
2023/02/04 06:23:52;;;;;;;2.38;0.50;;;;;;;1.94;65.73;98928.88;10518288;28;20040;-77
2023/02/04 06:29:13;;;;;;;0.90;0.50;;;;;;;2.04;65.30;98932.09;10517846;28;20497;-77
2023/02/04 06:34:33;;;;;;;1.63;0.60;;;;;;;2.05;64.78;98938.34;10526561;28;20071;-77
2023/02/04 06:39:56;;;;;;;1.15;0.43;;;;;;;2.09;64.30;98960.84;10521296;28;20048;-77
2023/02/04 06:45:17;;;;;;;1.60;0.65;;;;;;;2.09;64.11;98971.88;10503864;28;20044;-77
2023/02/04 06:50:38;;;;;;;2.33;0.60;;;;;;;2.11;64.49;98999.66;10500938;28;20036;-78
2023/02/04 06:55:58;;;;;;;1.40;0.50;;;;;;;2.05;64.56;99018.97;10531166;28;20044;-79
2023/02/04 07:01:19;;;;;;;1.48;0.50;;;;;;;1.97;64.85;99046.28;10503524;28;20040;-77
2023/02/04 07:06:40;;;;;;;2.22;0.80;;;;;;;2.11;64.90;99063.00;10475167;28;20494;-76
2023/02/04 07:12:01;;;;;;;1.30;0.60;;;;;;;2.18;63.84;99079.75;10509966;28;20070;-77
2023/02/04 07:17:22;;;;;;;1.48;0.57;;;;;;;2.24;63.82;99082.50;10516632;28;20470;-77
2023/02/04 07:22:43;;;;;;;1.10;0.52;;;;;;;2.44;63.19;99095.97;10516311;28;20169;-78
2023/02/04 07:28:04;;;;;;;0.90;0.50;;;;;;;3.36;62.40;99112.25;10507020;28;20044;-78
2023/02/04 07:33:25;;;;;;;2.60;0.65;;;;;;;3.80;61.46;99111.16;10487996;28;20032;-78
2023/02/04 07:38:46;;;;;;;1.70;0.95;;;;;;;4.94;59.08;99126.75;10502010;28;20048;-77
2023/02/04 07:44:06;;;;;;;1.75;0.80;;;;;;;4.95;59.24;99141.34;10473511;28;20045;-76
2023/02/04 07:49:27;;;;;;;2.03;0.70;;;;;;;4.29;60.30;99147.13;10500968;28;20067;-77
2023/02/04 07:54:49;;;;;;;1.45;0.60;;;;;;;3.70;60.29;99148.66;10473151;28;20040;-77
2023/02/04 08:00:12;;;;;;;1.88;0.73;;;;;;;3.27;61.03;99162.25;10473511;28;20044;-77
2023/02/04 08:05:34;;;;;;;1.67;0.50;;;;;;;3.04;60.42;99167.16;10496766;28;20574;-77
2023/02/04 08:10:54;;;;;;;1.33;0.63;;;;;;;2.86;60.56;99176.75;10513829;28;20067;-76
2023/02/04 08:16:18;;;;;;;1.90;0.50;;;;;;;3.00;59.58;99191.50;10514574;28;20082;-77
2023/02/04 08:21:38;;;;;;;1.13;0.30;;;;;;;2.91;58.64;99209.09;10513416;28;20052;-76
2023/02/04 08:26:59;;;;;;;0.60;0.30;;;;;;;3.13;59.66;99219.28;10513447;28;20509;-76
2023/02/04 08:32:20;;;;;;;1.88;0.50;;;;;;;3.27;57.37;99229.22;10527046;28;20044;-76
2023/02/04 08:37:41;;;;;;;2.00;0.47;;;;;;;3.08;55.17;99240.09;10513012;28;20051;-77
2023/02/04 08:43:02;;;;;;;1.92;0.55;;;;;;;3.83;57.53;99244.72;10512331;28;20043;-77
2023/02/04 08:48:23;;;;;;;1.30;0.50;;;;;;;4.45;56.82;99253.28;10507777;28;20090;-77
2023/02/04 08:53:44;;;;;;;0.75;0.28;;;;;;;4.44;54.96;99258.06;10539918;28;20093;-77
2023/02/04 08:59:04;;;;;;;1.42;0.43;;;;;;;4.15;54.76;99278.16;10526033;28;20047;-77
2023/02/04 09:04:27;;;;;;;1.10;0.40;;;;;;;4.17;55.55;99295.72;10522193;28;20047;-77
2023/02/04 09:09:48;;;;;;;0.70;0.40;;;;;;;4.54;55.20;99305.50;10532546;28;20050;-77
2023/02/04 09:15:09;;;;;;;1.65;0.43;;;;;;;9.34;55.25;99316.75;10539031;28;20039;-78
2023/02/04 09:20:30;;;;;;;1.00;0.40;;;;;;;9.93;47.68;99317.53;10567106;28;20093;-78
2023/02/04 09:25:52;;;;;;;1.35;0.40;;;;;;;18.01;43.23;99330.25;10532852;28;20036;-76
2023/02/04 09:31:13;;;;;;;1.02;0.38;;;;;;;13.87;38.30;99333.69;10544925;28;20085;-76
2023/02/04 09:36:36;;;;;;;1.40;0.40;;;;;;;10.34;40.04;99352.13;10545316;28;20047;-75
2023/02/04 09:41:57;;;;;;;1.15;0.35;;;;;;;9.40;42.22;99367.50;10532394;28;20040;-76
2023/02/04 09:47:20;;;;;;;1.58;0.50;;;;;;;10.19;43.64;99368.78;10516230;28;20056;-76
2023/02/04 09:52:42;;;;;;;1.10;0.40;;;;;;;10.73;40.86;99378.03;10504317;28;20490;-76
2023/02/04 09:58:11;;;;;;;1.15;0.57;;;;;;;16.10;38.95;99391.38;10508627;28;20270;-77
2023/02/04 10:03:34;;;;;;;1.80;0.47;;;;;;;16.11;34.63;99406.19;10539032;28;20043;-76
2023/02/04 10:08:55;;;;;;;1.42;0.50;;;;;;;11.92;35.14;99401.38;10548405;28;20508;-75
2023/02/04 10:14:18;;;;;;;1.20;0.50;;;;;;;9.19;39.07;99406.56;10543327;28;20070;-76
2023/02/04 10:19:39;;;;;;;2.03;0.57;;;;;;;7.50;40.75;99410.81;10555075;28;20044;-75
2023/02/04 10:25:00;;;;;;;3.15;0.65;;;;;;;6.85;41.15;99405.38;10512715;28;20055;-76
2023/02/04 10:30:25;;;;;;;4.47;0.60;;;;;;;6.19;41.98;99410.66;10510146;28;20040;-75
2023/02/04 10:35:47;;;;;;;1.20;0.47;;;;;;;5.54;42.60;99417.22;10509670;28;20440;-76
2023/02/04 10:41:12;;;;;;;1.30;0.60;;;;;;;8.97;41.57;99424.56;10512266;28;20070;-76
2023/02/04 10:46:33;;;;;;;2.70;1.25;;;;;;;8.31;39.06;99433.94;10554914;28;20067;-74
2023/02/04 10:51:53;;;;;;;3.88;0.60;;;;;;;7.04;40.60;99435.09;10565217;28;20071;-75
2023/02/04 10:57:25;;;;;;;2.35;0.77;;;;;;;6.83;41.95;99434.94;10565399;28;20118;-77
2023/02/04 11:03:00;;;;;;;1.63;0.60;;;;;;;7.27;42.24;99435.47;10565815;28;20093;-78
2023/02/04 11:08:27;;;;;;;2.05;0.80;;;;;;;7.85;40.01;99435.41;10545229;28;20051;-77
2023/02/04 11:13:49;;;;;;;0.82;0.38;;;;;;;6.73;40.72;99454.00;10517307;28;20040;-77
2023/02/04 11:19:11;;;;;;;1.75;0.60;;;;;;;5.84;41.89;99458.69;10545407;28;20048;-78
2023/02/04 11:24:33;;;;;;;1.00;0.35;;;;;;;5.35;42.94;99469.78;10516762;28;20444;-77
2023/02/04 11:30:04;;;;;;;1.23;0.40;;;;;;;5.41;43.59;99480.81;10517162;28;20452;-79
2023/02/04 11:35:27;;;;;;;2.95;0.50;;;;;;;5.41;42.98;99481.56;10517082;28;20040;-76
2023/02/04 11:40:54;;;;;;;1.55;0.40;;;;;;;5.47;43.40;99484.28;10509440;28;20047;-76
2023/02/04 11:46:16;;;;;;;2.75;0.68;;;;;;;5.97;43.23;99475.44;10490046;28;20044;-76
2023/02/04 11:51:37;;;;;;;3.83;0.75;;;;;;;6.13;42.84;99478.56;10473578;28;20098;-75
2023/02/04 11:56:58;;;;;;;2.65;0.75;;;;;;;5.89;42.84;99484.88;10485026;28;20058;-75
2023/02/04 12:02:24;;;;;;;1.83;0.45;;;;;;;6.00;42.81;99463.34;10490784;28;20040;-75
2023/02/04 12:07:46;;;;;;;1.98;0.70;;;;;;;6.55;42.80;99474.94;10514838;28;20436;-75
2023/02/04 12:13:16;;;;;;;2.63;0.60;;;;;;;6.56;41.96;99472.94;10513985;28;20044;-75
2023/02/04 12:18:38;;;;;;;1.00;0.40;;;;;;;6.03;41.93;99467.81;10527492;28;20044;-75
2023/02/04 12:23:59;;;;;;;1.25;0.43;;;;;;;5.97;41.85;99492.06;10555803;28;20091;-76
2023/02/04 12:29:20;;;;;;;1.40;0.30;;;;;;;5.79;41.51;99489.22;10513334;28;20397;-76
2023/02/04 12:34:41;;;;;;;0.98;0.40;;;;;;;5.98;41.98;99490.84;10526676;28;20040;-76
2023/02/04 12:40:02;;;;;;;2.45;0.40;;;;;;;5.70;41.46;99490.34;10512582;28;20048;-76
2023/02/04 12:45:23;;;;;;;2.72;0.70;;;;;;;5.37;41.83;99486.63;10525785;28;20102;-76
2023/02/04 12:50:45;;;;;;;3.50;0.40;;;;;;;5.35;42.10;99489.16;10527660;28;20044;-76
2023/02/04 12:56:06;;;;;;;2.20;0.40;;;;;;;5.54;42.48;99492.03;10542696;28;20389;-76
2023/02/04 13:01:27;;;;;;;1.40;0.30;;;;;;;5.53;42.13;99487.75;10555372;28;20474;-76
2023/02/04 13:06:47;;;;;;;3.03;0.40;;;;;;;5.28;42.21;99497.28;10554020;28;20078;-76
2023/02/04 13:12:08;;;;;;;1.17;0.50;;;;;;;5.42;42.85;99496.91;10539639;28;20051;-76
2023/02/04 13:17:29;;;;;;;1.75;0.60;;;;;;;5.11;42.89;99494.66;10525487;28;20040;-76
2023/02/04 13:22:49;;;;;;;3.10;0.80;;;;;;;5.20;42.75;99499.88;10511205;28;20068;-76
2023/02/04 13:28:10;;;;;;;1.83;0.40;;;;;;;4.73;42.80;99499.97;10524127;28;20040;-76
2023/02/04 13:33:31;;;;;;;1.88;0.50;;;;;;;4.66;42.65;99499.75;10510845;28;20066;-76
2023/02/04 13:38:52;;;;;;;1.45;0.40;;;;;;;5.06;43.16;99501.75;10525007;28;20052;-76
2023/02/04 13:44:13;;;;;;;1.45;0.30;;;;;;;5.13;42.30;99514.28;10538797;28;20041;-76
2023/02/04 13:49:34;;;;;;;1.15;0.40;;;;;;;4.90;42.25;99527.50;10538584;28;20068;-76
2023/02/04 13:54:55;;;;;;;2.50;0.60;;;;;;;5.27;42.85;99524.22;10525070;28;20465;-76
2023/02/04 14:00:16;;;;;;;1.73;0.40;;;;;;;5.74;42.46;99524.06;10524285;28;20055;-76
2023/02/04 14:05:38;;;;;;;0.95;0.35;;;;;;;5.89;42.36;99516.09;10548807;28;20056;-76
2023/02/04 14:10:59;;;;;;;1.20;0.52;;;;;;;5.71;41.90;99528.63;10545112;28;20480;-77
2023/02/04 14:16:20;;;;;;;1.75;0.30;;;;;;;5.74;41.38;99522.03;10538446;28;20040;-77
2023/02/04 14:21:41;;;;;;;1.20;0.30;;;;;;;5.41;41.81;99539.72;10528167;28;20036;-75
2023/02/04 14:27:06;;;;;;;2.53;0.40;;;;;;;5.25;42.55;99543.38;10515852;28;20063;-76
2023/02/04 14:32:27;;;;;;;0.98;0.40;;;;;;;5.74;42.64;99546.22;10542689;28;20071;-75
2023/02/04 14:37:47;;;;;;;1.02;0.52;;;;;;;5.70;42.23;99549.28;10550385;28;20043;-75
2023/02/04 14:43:11;;;;;;;1.75;0.70;;;;;;;5.65;42.91;99541.78;10559434;28;20047;-75
2023/02/04 14:48:33;;;;;;;1.57;0.63;;;;;;;5.77;42.75;99538.88;10557696;28;20036;-75
2023/02/04 14:53:54;;;;;;;1.80;0.40;;;;;;;5.52;43.09;99549.22;10586698;28;20273;-75
2023/02/04 14:59:15;;;;;;;4.43;0.88;;;;;;;5.31;43.95;99546.88;10556844;28;20084;-75
2023/02/04 15:04:36;;;;;;;2.53;0.70;;;;;;;5.45;43.70;99548.50;10542418;28;20052;-76
2023/02/04 15:09:57;;;;;;;2.95;0.70;;;;;;;5.35;44.02;99546.56;10558385;28;20039;-77
2023/02/04 15:15:18;;;;;;;2.22;0.90;;;;;;;5.36;44.23;99543.28;10558069;28;20074;-76
2023/02/04 15:20:38;;;;;;;6.20;1.10;;;;;;;4.94;45.44;99530.78;10556302;28;20043;-77
2023/02/04 15:25:59;;;;;;;2.75;1.10;;;;;;;4.48;45.01;99539.84;10540929;28;20058;-76
2023/02/04 15:31:21;;;;;;;3.95;1.10;;;;;;;4.03;45.91;99548.28;10543559;28;20043;-76
2023/02/04 15:36:42;;;;;;;4.10;0.98;;;;;;;3.61;45.72;99550.13;10515450;28;20051;-76
2023/02/04 15:42:03;;;;;;;3.25;1.02;;;;;;;3.29;46.71;99544.16;10501305;28;20048;-76
2023/02/04 15:47:24;;;;;;;2.25;0.60;;;;;;;3.01;46.48;99546.13;10504859;28;20044;-76
2023/02/04 15:52:45;;;;;;;3.63;0.80;;;;;;;2.80;47.35;99545.59;10535824;28;20043;-75
2023/02/04 15:58:06;;;;;;;2.35;0.77;;;;;;;2.74;48.18;99544.81;10571138;28;20039;-76
2023/02/04 16:03:26;;;;;;;3.47;0.85;;;;;;;2.77;48.53;99541.06;10542135;28;20399;-77
2023/02/04 16:08:47;;;;;;;2.75;0.85;;;;;;;2.70;48.23;99552.56;10531058;28;20052;-75
2023/02/04 16:14:08;;;;;;;3.42;0.90;;;;;;;2.60;48.25;99552.03;10513604;28;20047;-75
2023/02/04 16:19:29;;;;;;;3.38;1.00;;;;;;;2.53;49.51;99561.56;10499905;28;20043;-74
2023/02/04 16:24:51;;;;;;;3.17;0.98;;;;;;;2.63;49.48;99556.59;10530740;28;20070;-77
2023/02/04 16:30:13;;;;;;;3.28;1.20;;;;;;;2.64;48.86;99558.09;10540066;28;20089;-77
2023/02/04 16:36:00;;;;;;;4.03;1.52;;;;;;;2.37;50.08;99567.75;10519501;28;20043;-75
2023/02/04 16:41:22;;;;;;;4.10;1.73;;;;;;;2.11;50.06;99561.63;10544102;28;20047;-74
2023/02/04 16:46:43;;;;;;;4.93;1.58;;;;;;;1.94;51.20;99565.06;10548899;28;20393;-75
2023/02/04 16:52:04;;;;;;;4.93;1.90;;;;;;;1.82;51.24;99566.22;10526221;28;20043;-77
2023/02/04 16:57:25;;;;;;;4.40;1.77;;;;;;;1.93;51.13;99571.81;10550971;28;20043;-77
2023/02/04 17:02:46;;;;;;;3.58;1.20;;;;;;;2.04;51.76;99576.63;10544529;28;20063;-75
2023/02/04 17:08:08;;;;;;;5.10;1.20;;;;;;;2.07;51.66;99574.88;10533915;28;20552;-75
2023/02/04 17:13:28;;;;;;;4.20;1.25;;;;;;;1.95;51.49;99574.81;10536915;28;20036;-76
2023/02/04 17:18:49;;;;;;;3.55;1.13;;;;;;;1.79;51.98;99586.47;10538368;28;20050;-76
2023/02/04 17:24:10;;;;;;;4.53;1.33;;;;;;;1.64;52.39;99592.16;10549353;28;20036;-77
2023/02/04 17:29:31;;;;;;;5.90;1.50;;;;;;;1.46;52.34;99594.50;10540592;28;20047;-78
2023/02/04 17:34:53;;;;;;;3.55;1.20;;;;;;;1.30;53.19;99593.88;10562751;28;20039;-76
2023/02/04 17:40:15;;;;;;;3.90;1.48;;;;;;;1.40;52.97;99597.94;10567031;28;20036;-75
2023/02/04 17:45:36;;;;;;;3.50;1.73;;;;;;;1.41;53.13;99599.47;10537216;28;20382;-76
2023/02/04 17:50:58;;;;;;;5.10;2.17;;;;;;;1.35;54.08;99598.69;10525442;28;20050;-76
2023/02/04 17:56:20;;;;;;;6.07;1.83;;;;;;;1.41;54.19;99606.97;10550820;28;20054;-75
2023/02/04 18:01:41;;;;;;;5.03;1.65;;;;;;;1.51;54.27;99608.28;10562783;28;20046;-75
2023/02/04 18:07:07;;;;;;;4.05;1.50;;;;;;;1.62;55.58;99611.13;10479587;28;20057;-75
2023/02/04 18:12:27;;;;;;;2.95;1.25;;;;;;;1.68;55.05;99616.69;10487756;28;20036;-77
2023/02/04 18:17:48;;;;;;;5.70;1.60;;;;;;;1.54;56.04;99612.81;10533241;28;20069;-77
2023/02/04 18:23:14;;;;;;;4.57;1.42;;;;;;;1.41;54.91;99615.97;10522549;28;20501;-78
2023/02/04 18:28:38;;;;;;;5.95;1.55;;;;;;;1.23;55.94;99616.31;10504333;28;20044;-77
2023/02/04 18:34:00;;;;;;;6.60;1.90;;;;;;;1.12;57.33;99607.94;10510341;28;20039;-77
2023/02/04 18:39:29;;;;;;;4.75;1.42;;;;;;;1.12;57.27;99618.94;10515324;28;20035;-76
2023/02/04 18:44:51;;;;;;;6.07;1.40;;;;;;;1.20;56.94;99611.03;10516789;28;20064;-76
2023/02/04 18:50:28;;;;;;;7.03;1.48;;;;;;;1.30;55.98;99609.63;10544351;28;20047;-75
2023/02/04 18:55:51;;;;;;;4.13;1.10;;;;;;;1.29;56.32;99608.88;10493552;28;20394;-76
2023/02/04 19:01:11;;;;;;;2.80;1.08;;;;;;;1.33;57.19;99614.91;10479102;28;20040;-77
2023/02/04 19:06:37;;;;;;;4.18;1.20;;;;;;;1.37;57.05;99614.69;10562148;28;20113;-76
2023/02/04 19:11:59;;;;;;;4.53;1.48;;;;;;;1.36;56.93;99624.19;10530467;28;20051;-76
2023/02/04 19:17:25;;;;;;;3.38;1.70;;;;;;;1.37;57.43;99622.94;10529930;28;20469;-76
2023/02/04 19:22:49;;;;;;;4.47;1.75;;;;;;;1.31;56.96;99611.88;10558378;28;20051;-76
2023/02/04 19:28:32;;;;;;;3.57;1.43;;;;;;;1.17;57.27;99612.75;10524723;28;20093;-76
2023/02/04 19:33:54;;;;;;;4.30;1.50;;;;;;;1.10;57.37;99621.44;10530995;28;20552;-76
2023/02/04 19:39:28;;;;;;;3.72;1.40;;;;;;;1.06;57.33;99629.13;10515967;28;20063;-76
2023/02/04 19:44:49;;;;;;;3.83;1.58;;;;;;;1.01;58.01;99638.84;10529100;28;20052;-76
2023/02/04 19:50:25;;;;;;;5.43;1.55;;;;;;;0.89;57.79;99636.47;10501333;28;20040;-76
2023/02/04 19:55:48;;;;;;;5.35;1.70;;;;;;;0.78;58.35;99632.34;10514937;28;20040;-75
2023/02/04 20:01:16;;;;;;;5.57;1.98;;;;;;;0.83;58.62;99641.88;10514772;28;20101;-75
2023/02/04 20:06:37;;;;;;;4.35;1.48;;;;;;;1.03;58.61;99641.09;10472660;28;20052;-76
2023/02/04 20:12:05;;;;;;;4.28;1.30;;;;;;;1.17;58.18;99648.53;10489773;28;20044;-76
2023/02/04 20:17:37;;;;;;;5.10;1.60;;;;;;;1.36;58.27;99657.22;10517971;28;20044;-75
2023/02/04 20:22:59;;;;;;;6.05;2.05;;;;;;;1.47;58.36;99651.06;10493432;28;20040;-75
2023/02/04 20:28:28;;;;;;;7.65;2.63;;;;;;;1.56;57.81;99651.63;10513518;28;20040;-75
2023/02/04 20:33:54;;;;;;;4.00;1.80;;;;;;;1.55;58.01;99652.13;10528253;28;20040;-76
2023/02/04 20:39:48;;;;;;;6.05;1.50;;;;;;;1.58;58.55;99667.66;10494030;28;20044;-76
2023/02/04 20:45:31;;;;;;;4.68;1.30;;;;;;;1.63;58.25;99673.19;10482338;28;20061;-76
2023/02/04 20:50:54;;;;;;;3.67;1.40;;;;;;;1.58;58.61;99673.16;10498165;28;20040;-76
2023/02/04 20:56:24;;;;;;;3.03;1.02;;;;;;;1.56;58.52;99678.41;10457036;28;20445;-76
2023/02/04 21:01:47;;;;;;;5.07;1.20;;;;;;;1.61;58.75;99694.22;10457406;28;20512;-76
2023/02/04 21:07:18;;;;;;;5.20;1.08;;;;;;;1.55;58.75;99701.69;10515159;28;20398;-76
2023/02/04 21:12:41;;;;;;;4.50;1.52;;;;;;;1.56;59.02;99714.19;10511434;28;20036;-76
2023/02/04 21:18:02;;;;;;;2.58;1.10;;;;;;;1.51;58.80;99712.88;10525855;28;20047;-76
2023/02/04 21:23:24;;;;;;;3.70;1.35;;;;;;;1.55;59.15;99723.69;10510950;28;20102;-74
2023/02/04 21:28:44;;;;;;;3.63;1.30;;;;;;;1.53;59.29;99726.16;10525142;28;20044;-77
2023/02/04 21:34:05;;;;;;;5.55;1.50;;;;;;;1.52;59.62;99735.66;10511165;28;20044;-78
2023/02/04 21:39:26;;;;;;;3.90;1.35;;;;;;;1.51;59.69;99739.66;10524850;28;20055;-78
2023/02/04 21:44:47;;;;;;;3.83;1.42;;;;;;;1.52;59.34;99730.16;10509294;28;20044;-77
2023/02/04 21:50:08;;;;;;;3.47;1.20;;;;;;;1.48;60.10;99735.13;10534591;28;20040;-76
2023/02/04 21:55:29;;;;;;;3.00;1.38;;;;;;;1.42;59.66;99735.81;10482637;28;20263;-77
2023/02/04 22:00:50;;;;;;;2.90;1.27;;;;;;;1.36;59.83;99729.50;10480795;28;20105;-77
2023/02/04 22:06:13;;;;;;;3.97;1.38;;;;;;;1.32;60.20;99739.97;10508614;28;20440;-77
2023/02/04 22:11:34;;;;;;;4.22;1.40;;;;;;;1.36;60.15;99739.75;10493607;28;20058;-76
2023/02/04 22:16:55;;;;;;;4.90;1.50;;;;;;;1.38;60.44;99751.78;10495183;28;20044;-77
2023/02/04 22:22:16;;;;;;;5.15;1.30;;;;;;;1.41;60.56;99745.31;10509178;28;20089;-77
2023/02/04 22:27:37;;;;;;;3.95;1.35;;;;;;;1.41;59.96;99752.81;10513174;28;20036;-76
2023/02/04 22:33:01;;;;;;;3.25;1.20;;;;;;;1.33;61.06;99755.22;10507397;28;20059;-77
2023/02/04 22:38:22;;;;;;;5.30;1.63;;;;;;;1.33;60.91;99757.22;10523995;28;20091;-76
2023/02/04 22:43:49;;;;;;;2.70;1.27;;;;;;;1.24;60.13;99755.38;10497069;28;20113;-76
2023/02/04 22:49:10;;;;;;;4.68;1.00;;;;;;;1.13;60.13;99758.75;10508427;28;20055;-77
2023/02/04 22:54:31;;;;;;;3.15;0.95;;;;;;;1.11;59.65;99757.72;10511508;28;20493;-77
2023/02/04 22:59:52;;;;;;;1.88;1.00;;;;;;;1.12;59.18;99770.25;10512762;28;20048;-76
2023/02/04 23:05:13;;;;;;;1.95;0.70;;;;;;;1.11;59.14;99768.72;10546107;22;20059;-79
2023/02/04 23:10:34;;;;;;;3.30;0.68;;;;;;;0.93;58.32;99771.75;10513377;28;20047;-78
2023/02/04 23:15:57;;;;;;;3.50;0.90;;;;;;;0.87;58.37;99768.94;10516884;28;20500;-79
2023/02/04 23:21:19;;;;;;;2.35;0.77;;;;;;;0.81;58.04;99779.09;10529057;28;20555;-78
2023/02/04 23:26:40;;;;;;;3.53;0.80;;;;;;;0.77;57.98;99779.31;10529316;28;20374;-76
2023/02/04 23:32:01;;;;;;;3.25;0.80;;;;;;;0.59;57.58;99778.78;10516234;28;20044;-75
2023/02/04 23:37:22;;;;;;;2.75;0.73;;;;;;;0.44;56.35;99781.56;10528765;28;20043;-76
2023/02/04 23:42:42;;;;;;;2.72;0.80;;;;;;;0.28;57.54;99778.06;10486633;28;20040;-76
2023/02/04 23:48:04;;;;;;;1.75;0.77;;;;;;;0.19;57.42;99791.13;10501432;28;20047;-76
2023/02/04 23:53:25;;;;;;;4.47;0.85;;;;;;;0.18;57.40;99790.38;10513298;28;20050;-76
2023/02/04 23:58:46;;;;;;;2.80;0.88;;;;;;;0.11;57.24;99779.81;10512963;28;20121;-76
